createdAt,value
2022-10-26T00:01:17.499Z,101686.78
2022-10-26T00:03:49.457Z,101682.34
2022-10-26T00:06:25.276Z,101683.22
2022-10-26T00:08:58.252Z,101681.41
2022-10-26T00:11:30.128Z,101681.41
2022-10-26T00:14:02.058Z,101684.88
2022-10-26T00:16:34.038Z,101685.75
2022-10-26T00:19:06.341Z,101681.41
2022-10-26T00:21:38.248Z,101681.38
2022-10-26T00:24:12.369Z,101685.72
2022-10-26T00:26:44.718Z,101690.91
2022-10-26T00:29:18.449Z,101682.19
2022-10-26T00:31:50.349Z,101683.06
2022-10-26T00:34:22.291Z,101684.78
2022-10-26T00:36:54.248Z,101678.69
2022-10-26T00:39:26.285Z,101695.22
2022-10-26T00:41:58.178Z,101689.13
2022-10-26T00:44:58.862Z,101695.25
2022-10-26T00:47:45.683Z,101695.19
2022-10-26T00:50:28.095Z,101683.88
2022-10-26T00:53:03.748Z,101693.47
2022-10-26T00:55:42.981Z,101694.31
2022-10-26T00:58:15.954Z,101700.41
2022-10-26T01:00:48.392Z,101689.97
2022-10-26T01:03:21.038Z,101690.84
2022-10-26T01:05:57.228Z,101676.88
2022-10-26T01:08:29.962Z,101689.13
2022-10-26T01:11:02.798Z,101675.19
2022-10-26T01:13:36.344Z,101678.69
2022-10-26T01:16:29.848Z,101682.16
2022-10-26T01:19:20.102Z,101686.53
2022-10-26T01:22:00.237Z,101679.56
2022-10-26T01:24:32.045Z,101679.56
2022-10-26T01:27:27.537Z,101685.63
2022-10-26T01:30:27.314Z,101676.88
2022-10-26T01:33:11.553Z,101676.00
2022-10-26T01:36:12.308Z,101674.28
2022-10-26T01:39:01.887Z,101664.66
2022-10-26T01:41:42.676Z,101663.75
2022-10-26T01:44:22.900Z,101662.03
2022-10-26T01:46:58.773Z,101662.00
2022-10-26T01:49:36.624Z,101661.06
2022-10-26T01:52:10.561Z,101661.94
2022-10-26T01:54:42.493Z,101650.59
2022-10-26T01:57:19.514Z,101661.03
2022-10-26T01:59:56.919Z,101659.31
2022-10-26T02:02:49.145Z,101654.97
2022-10-26T02:05:36.410Z,101655.84
2022-10-26T02:08:28.733Z,101653.22
2022-10-26T02:11:46.721Z,101652.34
2022-10-26T02:14:53.739Z,101639.28
2022-10-26T02:17:53.229Z,101643.66
2022-10-26T02:20:34.821Z,101638.44
2022-10-26T02:23:08.322Z,101636.72
2022-10-26T02:25:48.099Z,101639.34
2022-10-26T02:28:26.129Z,101634.97
2022-10-26T02:31:01.231Z,101631.47
2022-10-26T02:33:40.255Z,101631.50
2022-10-26T02:36:17.192Z,101633.22
2022-10-26T02:38:50.612Z,101628.00
2022-10-26T02:41:24.474Z,101618.38
2022-10-26T02:44:26.934Z,101620.13
2022-10-26T02:46:59.814Z,101614.00
2022-10-26T02:49:32.164Z,101607.94
2022-10-26T02:52:13.710Z,101605.31
2022-10-26T02:55:03.566Z,101606.19
2022-10-26T02:57:42.134Z,101614.94
2022-10-26T03:00:17.386Z,101605.31
2022-10-26T03:02:57.534Z,101602.69
2022-10-26T03:05:33.464Z,101607.00
2022-10-26T03:08:05.599Z,101593.94
2022-10-26T03:10:43.937Z,101597.47
2022-10-26T03:13:15.841Z,101588.75
2022-10-26T03:15:47.861Z,101586.13
2022-10-26T03:18:19.831Z,101593.09
2022-10-26T03:20:51.728Z,101596.56
2022-10-26T03:23:23.822Z,101588.72
2022-10-26T03:25:59.662Z,101585.19
2022-10-26T03:28:31.683Z,101585.19
2022-10-26T03:31:03.590Z,101584.34
2022-10-26T03:33:35.492Z,101592.19
2022-10-26T03:36:08.630Z,101591.28
2022-10-26T03:38:40.597Z,101594.72
2022-10-26T03:41:12.538Z,101594.72
2022-10-26T03:43:44.421Z,101589.56
2022-10-26T03:46:16.366Z,101588.69
2022-10-26T03:48:48.241Z,101591.34
2022-10-26T03:51:20.146Z,101593.97
2022-10-26T03:53:52.021Z,101593.97
2022-10-26T03:56:23.906Z,101592.22
2022-10-26T03:58:55.782Z,101593.09
2022-10-26T04:01:27.772Z,101594.81
2022-10-26T04:03:59.758Z,101594.81
2022-10-26T04:06:31.787Z,101596.53
2022-10-26T04:09:04.121Z,101590.41
2022-10-26T04:11:36.033Z,101589.56
2022-10-26T04:14:07.961Z,101593.94
2022-10-26T04:16:40.111Z,101598.25
2022-10-26T04:19:12.118Z,101603.50
2022-10-26T04:21:44.082Z,101608.72
2022-10-26T04:24:16.295Z,101605.22
2022-10-26T04:26:48.265Z,101604.38
2022-10-26T04:29:20.198Z,101601.78
2022-10-26T04:31:52.135Z,101597.38
2022-10-26T04:34:24.203Z,101603.50
2022-10-26T04:36:56.366Z,101607.03
2022-10-26T04:39:28.395Z,101604.41
2022-10-26T04:42:00.312Z,101604.41
2022-10-26T04:44:32.694Z,101605.25
2022-10-26T04:47:04.613Z,101602.63
2022-10-26T04:49:36.485Z,101608.75
2022-10-26T04:52:08.414Z,101601.78
2022-10-26T04:54:40.325Z,101604.38
2022-10-26T04:57:12.343Z,101599.16
2022-10-26T04:59:44.239Z,101605.19
2022-10-26T05:02:16.404Z,101591.19
2022-10-26T05:04:48.721Z,101598.16
2022-10-26T05:07:20.789Z,101593.81
2022-10-26T05:09:52.682Z,101596.41
2022-10-26T05:12:24.622Z,101597.25
2022-10-26T05:14:59.098Z,101597.25
2022-10-26T05:17:31.072Z,101600.72
2022-10-26T05:20:06.098Z,101594.63
2022-10-26T05:22:38.080Z,101592.91
2022-10-26T05:25:10.047Z,101585.06
2022-10-26T05:27:41.955Z,101583.25
2022-10-26T05:30:14.206Z,101583.28
2022-10-26T05:32:53.870Z,101581.56
2022-10-26T05:35:27.306Z,101589.41
2022-10-26T05:37:59.678Z,101579.75
2022-10-26T05:40:31.581Z,101580.66
2022-10-26T05:43:04.105Z,101588.47
2022-10-26T05:45:36.157Z,101580.66
2022-10-26T05:48:08.201Z,101577.22
2022-10-26T05:50:40.142Z,101582.41
2022-10-26T05:53:12.181Z,101578.03
2022-10-26T05:55:44.912Z,101582.34
2022-10-26T05:58:17.290Z,101578.78
2022-10-26T06:01:21.002Z,101579.66
2022-10-26T06:04:15.508Z,101587.50
2022-10-26T06:06:54.087Z,101594.50
2022-10-26T06:09:26.475Z,101597.13
2022-10-26T06:11:58.695Z,101610.19
2022-10-26T06:14:31.130Z,101608.41
2022-10-26T06:17:17.543Z,101611.03
2022-10-26T06:20:00.481Z,101611.94
2022-10-26T06:22:47.286Z,101610.19
2022-10-26T06:26:04.395Z,101606.69
2022-10-26T06:28:54.772Z,101601.47
2022-10-26T06:31:27.103Z,101601.47
2022-10-26T06:34:01.488Z,101602.38
2022-10-26T06:36:33.970Z,101607.59
2022-10-26T06:39:11.618Z,101603.22
2022-10-26T06:41:44.060Z,101617.16
2022-10-26T06:44:23.959Z,101618.88
2022-10-26T06:47:06.307Z,101617.09
2022-10-26T06:50:17.578Z,101620.59
2022-10-26T06:53:15.454Z,101631.03
2022-10-26T06:55:50.699Z,101633.59
2022-10-26T06:58:28.224Z,101641.50
2022-10-26T07:01:00.483Z,101632.75
2022-10-26T07:03:33.215Z,101629.25
2022-10-26T07:06:06.222Z,101629.28
2022-10-26T07:08:38.325Z,101635.44
2022-10-26T07:11:10.443Z,101643.31
2022-10-26T07:13:42.417Z,101642.53
2022-10-26T07:16:14.343Z,101646.91
2022-10-26T07:18:46.352Z,101647.84
2022-10-26T07:21:18.245Z,101648.75
2022-10-26T07:23:50.368Z,101644.47
2022-10-26T07:26:22.539Z,101645.38
2022-10-26T07:28:54.576Z,101637.56
2022-10-26T07:31:27.136Z,101635.88
2022-10-26T07:33:59.068Z,101633.31
2022-10-26T07:36:31.083Z,101635.13
2022-10-26T07:39:07.320Z,101633.41
2022-10-26T07:41:39.257Z,101633.47
2022-10-26T07:44:11.184Z,101629.97
2022-10-26T07:46:43.085Z,101632.66
2022-10-26T07:49:17.707Z,101630.94
2022-10-26T07:51:51.442Z,101624.88
2022-10-26T07:54:23.445Z,101630.97
2022-10-26T07:56:55.442Z,101626.63
2022-10-26T07:59:27.451Z,101635.38
2022-10-26T08:01:59.400Z,101635.38
2022-10-26T08:04:31.409Z,101631.88
2022-10-26T08:07:03.332Z,101624.06
2022-10-26T08:09:35.356Z,101629.31
2022-10-26T08:12:07.470Z,101632.81
2022-10-26T08:14:39.423Z,101637.16
2022-10-26T08:17:11.868Z,101638.03
2022-10-26T08:19:43.850Z,101628.44
2022-10-26T08:22:16.041Z,101621.44
2022-10-26T08:24:48.034Z,101628.44
2022-10-26T08:27:19.989Z,101626.69
2022-10-26T08:29:51.893Z,101631.94
2022-10-26T08:32:26.728Z,101633.66
2022-10-26T08:34:58.648Z,101635.41
2022-10-26T08:37:30.639Z,101635.41
2022-10-26T08:40:04.448Z,101634.53
2022-10-26T08:42:44.219Z,101625.78
2022-10-26T08:45:36.661Z,101628.41
2022-10-26T08:48:24.428Z,101622.31
2022-10-26T08:51:01.652Z,101624.94
2022-10-26T08:54:10.802Z,101619.69
2022-10-26T08:56:50.730Z,101618.81
2022-10-26T08:59:43.673Z,101610.94
2022-10-26T09:02:17.610Z,101616.16
2022-10-26T09:04:49.663Z,101610.91
2022-10-26T09:07:43.182Z,101613.47
2022-10-26T09:10:53.186Z,101604.63
2022-10-26T09:14:16.187Z,101612.41
2022-10-26T09:17:33.786Z,101614.06
2022-10-26T09:20:40.864Z,101617.44
2022-10-26T09:23:37.176Z,101616.50
2022-10-26T09:26:15.716Z,101614.69
2022-10-26T09:28:48.924Z,101615.38
2022-10-26T09:31:21.333Z,101608.59
2022-10-26T09:33:55.313Z,101610.41
2022-10-26T09:36:27.534Z,101606.13
2022-10-26T09:39:19.146Z,101611.34
2022-10-26T09:41:59.060Z,101616.63
2022-10-26T09:44:45.847Z,101614.00
2022-10-26T09:47:38.737Z,101611.31
2022-10-26T09:50:26.573Z,101603.34
2022-10-26T09:52:58.557Z,101610.38
2022-10-26T09:55:32.810Z,101605.06
2022-10-26T09:58:14.215Z,101600.69
2022-10-26T10:00:46.991Z,101595.28
2022-10-26T10:03:29.074Z,101600.31
2022-10-26T10:06:20.501Z,101606.25
2022-10-26T10:09:05.766Z,101606.16
2022-10-26T10:12:03.167Z,101604.84
2022-10-26T10:14:40.497Z,101602.50
2022-10-26T10:17:23.871Z,101609.66
2022-10-26T10:20:12.630Z,101612.63
2022-10-26T10:23:00.111Z,101623.69
2022-10-26T10:25:40.142Z,101620.66
2022-10-26T10:28:40.317Z,101614.88
2022-10-26T10:31:30.346Z,101619.59
2022-10-26T10:34:17.021Z,101627.81
2022-10-26T10:36:50.434Z,101625.25
2022-10-26T10:39:42.555Z,101628.00
2022-10-26T10:42:29.938Z,101634.09
2022-10-26T10:45:03.017Z,101631.91
2022-10-26T10:50:14.689Z,101636.41
2022-10-26T10:52:47.382Z,101630.94
2022-10-26T10:55:24.007Z,101627.56
2022-10-26T10:58:47.148Z,101628.72
2022-10-26T11:01:23.810Z,101634.91
2022-10-26T11:07:10.253Z,101647.78
2022-10-26T11:09:45.369Z,101641.28
2022-10-26T11:12:36.500Z,101653.66
2022-10-26T11:15:18.330Z,101656.03
2022-10-26T11:18:13.900Z,101659.13
2022-10-26T11:21:01.140Z,101654.56
2022-10-26T11:24:07.070Z,101652.34
2022-10-26T11:27:18.263Z,101664.41
2022-10-26T11:30:07.299Z,101656.25
2022-10-26T11:32:48.608Z,101653.59
2022-10-26T11:35:28.631Z,101644.50
2022-10-26T11:38:38.808Z,101654.78
2022-10-26T11:41:49.946Z,101649.44
2022-10-26T11:44:37.426Z,101654.63
2022-10-26T11:47:35.715Z,101651.31
2022-10-26T11:50:22.867Z,101649.78
2022-10-26T11:53:08.880Z,101640.97
2022-10-26T11:55:42.715Z,101636.59
2022-10-26T11:58:14.897Z,101629.06
2022-10-26T12:00:54.221Z,101633.81
2022-10-26T12:03:31.150Z,101641.63
2022-10-26T12:06:04.337Z,101650.97
2022-10-26T12:08:41.421Z,101650.06
2022-10-26T12:11:39.503Z,101647.88
2022-10-26T12:14:43.070Z,101658.75
2022-10-26T12:17:30.966Z,101662.00
2022-10-26T12:20:37.093Z,101662.84
2022-10-26T12:23:16.156Z,101659.91
2022-10-26T12:26:24.392Z,101659.13
2022-10-26T12:29:02.270Z,101657.38
2022-10-26T12:31:37.287Z,101658.25
2022-10-26T12:34:41.385Z,101656.44
2022-10-26T12:37:31.266Z,101648.72
2022-10-26T12:40:31.202Z,101658.44
2022-10-26T12:43:17.994Z,101653.03
2022-10-26T12:46:14.880Z,101659.03
2022-10-26T12:48:49.217Z,101648.56
2022-10-26T12:51:22.051Z,101655.53
2022-10-26T12:54:18.665Z,101650.94
2022-10-26T12:57:19.515Z,101649.81
2022-10-26T13:00:05.319Z,101644.28
2022-10-26T13:03:15.707Z,101644.81
2022-10-26T13:06:24.947Z,101651.81
2022-10-26T13:09:01.544Z,101647.75
2022-10-26T13:11:42.981Z,101641.47
2022-10-26T13:14:30.094Z,101648.13
2022-10-26T13:17:05.181Z,101646.22
2022-10-26T13:19:49.469Z,101645.31
2022-10-26T13:22:22.609Z,101649.50
2022-10-26T13:25:04.436Z,101659.06
2022-10-26T13:27:36.443Z,101646.66
2022-10-26T13:30:36.151Z,101655.91
2022-10-26T13:33:18.405Z,101659.63
2022-10-26T13:35:55.500Z,101663.84
2022-10-26T13:38:32.740Z,101666.63
2022-10-26T13:41:16.808Z,101658.59
2022-10-26T13:43:50.766Z,101660.53
2022-10-26T13:46:28.214Z,101656.09
2022-10-26T13:49:09.356Z,101661.44
2022-10-26T13:51:46.131Z,101666.66
2022-10-26T13:54:43.114Z,101665.88
2022-10-26T13:57:36.115Z,101669.53
2022-10-26T14:00:23.183Z,101678.63
2022-10-26T14:02:55.666Z,101677.75
2022-10-26T14:05:27.897Z,101676.19
2022-10-26T14:08:00.152Z,101674.38
2022-10-26T14:10:42.463Z,101676.16
2022-10-26T14:13:18.157Z,101675.28
2022-10-26T14:15:50.379Z,101674.53
2022-10-26T14:18:29.078Z,101685.06
2022-10-26T14:21:08.301Z,101683.47
2022-10-26T14:23:58.987Z,101687.88
2022-10-26T14:26:42.602Z,101688.81
2022-10-26T14:29:22.106Z,101697.50
2022-10-26T14:31:57.486Z,101705.34
2022-10-26T14:34:29.656Z,101708.97
2022-10-26T14:37:04.912Z,101702.91
2022-10-26T14:39:44.218Z,101701.28
2022-10-26T14:42:40.416Z,101709.16
2022-10-26T14:45:47.484Z,101703.91
2022-10-26T14:48:30.539Z,101699.53
2022-10-26T14:51:15.831Z,101704.03
2022-10-26T14:53:55.004Z,101688.28
2022-10-26T14:56:44.250Z,101688.38
2022-10-26T14:59:24.245Z,101697.13
2022-10-26T15:02:11.169Z,101693.63
2022-10-26T15:05:16.202Z,101693.84
2022-10-26T15:07:48.506Z,101692.94
2022-10-26T15:10:39.243Z,101707.03
2022-10-26T15:13:26.609Z,101709.91
2022-10-26T15:16:20.702Z,101705.59
2022-10-26T15:18:57.566Z,101711.81
2022-10-26T15:21:45.841Z,101712.84
2022-10-26T15:24:20.677Z,101707.69
2022-10-26T15:26:53.136Z,101711.31
2022-10-26T15:29:42.483Z,101712.28
2022-10-26T15:32:31.619Z,101713.34
2022-10-26T15:35:28.636Z,101721.25
2022-10-26T15:38:01.480Z,101713.34
2022-10-26T15:40:33.613Z,101717.84
2022-10-26T15:43:05.740Z,101717.75
2022-10-26T15:45:48.569Z,101728.31
2022-10-26T15:48:29.179Z,101736.34
2022-10-26T15:51:01.103Z,101749.63
2022-10-26T15:53:33.181Z,101759.44
2022-10-26T15:56:14.156Z,101755.16
2022-10-26T15:58:47.106Z,101753.50
2022-10-26T16:01:24.014Z,101749.13
2022-10-26T16:03:56.437Z,101759.81
2022-10-26T16:06:34.553Z,101756.41
2022-10-26T16:09:12.230Z,101760.84
2022-10-26T16:11:45.585Z,101756.53
2022-10-26T16:14:17.808Z,101754.97
2022-10-26T16:16:49.716Z,101763.00
2022-10-26T16:19:37.110Z,101764.88
2022-10-26T16:22:09.704Z,101765.03
2022-10-26T16:24:41.724Z,101770.34
2022-10-26T16:27:13.625Z,101777.50
2022-10-26T16:29:45.612Z,101783.75
2022-10-26T16:32:17.558Z,101782.97
2022-10-26T16:34:49.526Z,101788.31
2022-10-26T16:37:21.540Z,101797.13
2022-10-26T16:39:53.767Z,101792.78
2022-10-26T16:42:26.441Z,101793.72
2022-10-26T16:45:02.561Z,101794.63
2022-10-26T16:47:36.515Z,101805.22
2022-10-26T16:50:12.006Z,101801.75
2022-10-26T16:52:44.214Z,101809.72
2022-10-26T16:55:16.948Z,101811.53
2022-10-26T16:57:49.283Z,101817.75
2022-10-26T17:00:21.427Z,101822.16
2022-10-26T17:02:53.371Z,101830.13
2022-10-26T17:05:25.307Z,101832.84
2022-10-26T17:07:57.231Z,101836.38
2022-10-26T17:10:29.220Z,101838.16
2022-10-26T17:13:01.183Z,101839.09
2022-10-26T17:15:33.449Z,101847.94
2022-10-26T17:18:05.506Z,101845.31
2022-10-26T17:20:38.492Z,101859.41
2022-10-26T17:23:10.450Z,101863.78
2022-10-26T17:25:42.378Z,101868.22
2022-10-26T17:28:14.826Z,101884.94
2022-10-26T17:30:46.932Z,101887.59
2022-10-26T17:33:18.941Z,101892.00
2022-10-26T17:35:53.849Z,101899.06
2022-10-26T17:38:26.490Z,101892.94
2022-10-26T17:41:08.234Z,101896.50
2022-10-26T17:43:42.768Z,101900.00
2022-10-26T17:46:21.505Z,101910.56
2022-10-26T17:48:59.415Z,101918.47
2022-10-26T17:51:31.418Z,101918.50
2022-10-26T17:54:04.015Z,101925.53
2022-10-26T17:56:36.110Z,101926.44
2022-10-26T17:59:12.919Z,101928.19
2022-10-26T18:01:44.980Z,101934.34
2022-10-26T18:04:16.991Z,101946.63
2022-10-26T18:06:49.010Z,101951.03
2022-10-26T18:09:21.065Z,101956.31
2022-10-26T18:11:55.134Z,101961.59
2022-10-26T18:14:28.016Z,101956.31
2022-10-26T18:17:00.033Z,101968.59
2022-10-26T18:19:32.005Z,101968.59
2022-10-26T18:22:03.970Z,101973.88
2022-10-26T18:24:35.899Z,101973.88
2022-10-26T18:27:07.854Z,101980.03
2022-10-26T18:29:40.008Z,101986.16
2022-10-26T18:32:12.036Z,101985.28
2022-10-26T18:34:44.022Z,101989.69
2022-10-26T18:37:16.043Z,101995.84
2022-10-26T18:39:47.979Z,101985.31
2022-10-26T18:42:19.909Z,101999.34
2022-10-26T18:44:51.879Z,102001.97
2022-10-26T18:47:23.801Z,102001.09
2022-10-26T18:49:55.972Z,101999.34
2022-10-26T18:52:28.416Z,102002.84
2022-10-26T18:55:00.338Z,102015.09
2022-10-26T18:57:32.300Z,102020.38
2022-10-26T19:00:04.821Z,102013.34
2022-10-26T19:02:36.719Z,102008.97
2022-10-26T19:05:08.957Z,102014.25
2022-10-26T19:07:41.922Z,102017.75
2022-10-26T19:10:13.886Z,102012.50
2022-10-26T19:12:45.787Z,102013.38
2022-10-26T19:15:17.710Z,102010.75
2022-10-26T19:17:49.753Z,102013.41
2022-10-26T19:20:21.822Z,102023.94
2022-10-26T19:22:53.989Z,102037.09
2022-10-26T19:25:26.071Z,102036.19
2022-10-26T19:27:58.053Z,102037.09
2022-10-26T19:30:30.109Z,102027.44
2022-10-26T19:33:02.008Z,102032.69
2022-10-26T19:38:25.940Z,102046.72
2022-10-26T19:41:01.181Z,102052.84
2022-10-26T19:43:34.953Z,102058.13
2022-10-26T19:46:16.236Z,102056.38
2022-10-26T19:48:50.717Z,102060.75
2022-10-26T19:51:31.406Z,102053.75
2022-10-26T19:54:06.053Z,102057.25
2022-10-26T19:56:38.423Z,102059.00
2022-10-26T19:59:11.476Z,102061.66
2022-10-26T20:01:43.586Z,102058.16
2022-10-26T20:04:15.628Z,102065.16
2022-10-26T20:06:47.595Z,102071.28
2022-10-26T20:09:19.708Z,102073.91
2022-10-26T20:11:51.640Z,102078.28
2022-10-26T20:14:23.592Z,102074.78
2022-10-26T20:16:55.582Z,102080.03
2022-10-26T20:19:27.488Z,102087.03
2022-10-26T20:21:59.694Z,102087.03
2022-10-26T20:24:31.684Z,102087.94
2022-10-26T20:27:03.837Z,102098.47
2022-10-26T20:29:36.079Z,102100.22
2022-10-26T20:32:08.125Z,102100.22
2022-10-26T20:34:42.581Z,102106.34
2022-10-26T20:37:18.213Z,102104.59
2022-10-26T20:39:52.445Z,102106.34
2022-10-26T20:42:27.753Z,102105.47
2022-10-26T20:45:12.144Z,102112.47
2022-10-26T20:47:44.718Z,102108.97
2022-10-26T20:50:17.296Z,102108.97
2022-10-26T20:52:55.176Z,102109.00
2022-10-26T20:55:37.708Z,102114.25
2022-10-26T20:58:38.626Z,102123.00
2022-10-26T21:01:29.033Z,102127.41
2022-10-26T21:04:03.952Z,102123.91
2022-10-26T21:06:40.308Z,102119.53
2022-10-26T21:09:12.480Z,102123.91
2022-10-26T21:11:45.551Z,102130.94
2022-10-26T21:14:17.707Z,102133.56
2022-10-26T21:16:49.728Z,102132.69
2022-10-26T21:19:21.856Z,102130.94
2022-10-26T21:21:53.835Z,102130.06
2022-10-26T21:24:25.825Z,102137.06
2022-10-26T21:26:57.855Z,102139.72
2022-10-26T21:29:29.885Z,102144.97
2022-10-26T21:32:04.680Z,102147.59
2022-10-26T21:34:36.647Z,102146.72
2022-10-26T21:37:08.631Z,102147.59
2022-10-26T21:39:40.549Z,102144.09
2022-10-26T21:42:12.502Z,102149.34
2022-10-26T21:44:44.501Z,102153.75
2022-10-26T21:47:16.449Z,102156.38
2022-10-26T21:49:48.442Z,102160.75
2022-10-26T21:52:20.421Z,102154.63
2022-10-26T21:54:52.348Z,102152.88
2022-10-26T21:57:24.726Z,102153.75
2022-10-26T21:59:56.654Z,102150.25
2022-10-26T22:02:28.665Z,102152.00
2022-10-26T22:05:00.754Z,102152.88
2022-10-26T22:07:32.805Z,102163.38
2022-10-26T22:10:10.570Z,102157.25
2022-10-26T22:12:43.040Z,102155.50
2022-10-26T22:15:15.754Z,102162.50
2022-10-26T22:17:47.854Z,102163.38
2022-10-26T22:20:19.972Z,102157.25
2022-10-26T22:22:52.198Z,102170.41
2022-10-26T22:25:24.177Z,102168.66
2022-10-26T22:27:56.156Z,102162.50
2022-10-26T22:30:28.063Z,102166.00
2022-10-26T22:32:59.972Z,102163.38
2022-10-26T22:35:32.100Z,102166.84
2022-10-26T22:38:04.036Z,102167.72
2022-10-26T22:40:36.011Z,102171.22
2022-10-26T22:43:07.920Z,102173.91
2022-10-26T22:45:39.893Z,102175.63
2022-10-26T22:48:12.324Z,102179.13
2022-10-26T22:50:44.353Z,102181.75
2022-10-26T22:53:16.264Z,102172.09
2022-10-26T22:55:48.562Z,102182.63
2022-10-26T22:58:20.551Z,102181.75
2022-10-26T23:00:52.501Z,102175.59
2022-10-26T23:03:24.457Z,102187.00
2022-10-26T23:05:57.482Z,102184.38
2022-10-26T23:08:29.709Z,102181.75
2022-10-26T23:11:05.161Z,102185.25
2022-10-26T23:13:37.428Z,102181.75
2022-10-26T23:16:21.171Z,102186.13
2022-10-26T23:18:54.076Z,102192.25
2022-10-26T23:21:28.332Z,102195.78
2022-10-26T23:24:00.734Z,102199.22
2022-10-26T23:26:32.720Z,102210.63
2022-10-26T23:29:04.621Z,102210.63
2022-10-26T23:31:36.889Z,102200.97
2022-10-26T23:34:09.634Z,102206.22
2022-10-26T23:36:41.577Z,102213.25
2022-10-26T23:39:13.744Z,102210.59
2022-10-26T23:41:45.737Z,102214.09
2022-10-26T23:44:17.841Z,102208.84
2022-10-26T23:46:49.799Z,102198.31
2022-10-26T23:49:21.869Z,102203.59
2022-10-26T23:51:53.763Z,102203.59
2022-10-26T23:54:25.682Z,102201.81
2022-10-26T23:56:57.976Z,102199.19
2022-10-26T23:59:30.240Z,102209.72
